Terminal Aerodrome Forecast
Issued by NWS Mt. Holly, NJ

Home | Current Version | Previous Version | Text Only | Print | Product List | Glossary On
Versions: 1 2 3 4 5 6 7 8 9 10 11 12 13 14 15 16 17 18 19
000
FTUS41 KPHI 212100 AAB
TAFABE
TAF AMD
KABE 212103Z 2121/2218 20006KT P6SM BKN035
      TEMPO 2122/2124 4SM -SHRA BR OVC025
     FM220200 00000KT 5SM BR SCT250
     FM220800 05003KT 4SM BR BKN009
     FM221400 06004KT P6SM BKN015=

USA.gov is the U.S. government's official web portal to all federal, state and local government web resources and services.